sensor_id;sensor_type;location;lat;lon;timestamp;P1;durP1;ratioP1;P2;durP2;ratioP2
54929;SDS011;40833;53.238;6.576;2023-04-01T00:00:29;9.33;;;7.27;;
54929;SDS011;40833;53.238;6.576;2023-04-01T00:02:55;11.63;;;8.57;;
54929;SDS011;40833;53.238;6.576;2023-04-01T00:05:21;8.67;;;7.50;;
54929;SDS011;40833;53.238;6.576;2023-04-01T00:07:49;10.97;;;7.90;;
54929;SDS011;40833;53.238;6.576;2023-04-01T00:10:16;13.20;;;9.30;;
54929;SDS011;40833;53.238;6.576;2023-04-01T00:12:42;11.10;;;7.83;;
54929;SDS011;40833;53.238;6.576;2023-04-01T00:15:09;11.00;;;7.97;;
54929;SDS011;40833;53.238;6.576;2023-04-01T00:17:36;7.60;;;6.90;;
54929;SDS011;40833;53.238;6.576;2023-04-01T00:20:02;10.10;;;7.33;;
54929;SDS011;40833;53.238;6.576;2023-04-01T00:22:29;11.27;;;7.73;;
54929;SDS011;40833;53.238;6.576;2023-04-01T00:24:55;9.67;;;8.07;;
54929;SDS011;40833;53.238;6.576;2023-04-01T00:27:20;14.90;;;7.83;;
54929;SDS011;40833;53.238;6.576;2023-04-01T00:29:46;9.53;;;7.27;;
54929;SDS011;40833;53.238;6.576;2023-04-01T00:32:13;10.73;;;7.40;;
54929;SDS011;40833;53.238;6.576;2023-04-01T00:34:39;9.47;;;7.10;;
54929;SDS011;40833;53.238;6.576;2023-04-01T00:37:06;9.00;;;7.07;;
54929;SDS011;40833;53.238;6.576;2023-04-01T00:39:33;8.57;;;7.63;;
54929;SDS011;40833;53.238;6.576;2023-04-01T00:41:59;11.30;;;7.17;;
54929;SDS011;40833;53.238;6.576;2023-04-01T00:44:27;9.03;;;7.40;;
54929;SDS011;40833;53.238;6.576;2023-04-01T00:46:57;11.27;;;8.07;;
54929;SDS011;40833;53.238;6.576;2023-04-01T00:49:25;11.93;;;7.90;;
54929;SDS011;40833;53.238;6.576;2023-04-01T00:51:54;10.07;;;8.10;;
54929;SDS011;40833;53.238;6.576;2023-04-01T00:54:22;12.43;;;7.83;;
54929;SDS011;40833;53.238;6.576;2023-04-01T00:56:52;7.87;;;7.07;;
54929;SDS011;40833;53.238;6.576;2023-04-01T00:59:31;9.20;;;6.87;;
54929;SDS011;40833;53.238;6.576;2023-04-01T01:02:04;8.83;;;7.43;;
54929;SDS011;40833;53.238;6.576;2023-04-01T01:04:32;10.67;;;8.30;;
54929;SDS011;40833;53.238;6.576;2023-04-01T01:12:31;8.87;;;7.17;;
54929;SDS011;40833;53.238;6.576;2023-04-01T01:15:24;10.07;;;7.60;;
54929;SDS011;40833;53.238;6.576;2023-04-01T01:25:31;8.70;;;7.80;;
54929;SDS011;40833;53.238;6.576;2023-04-01T01:33:54;10.20;;;7.50;;
54929;SDS011;40833;53.238;6.576;2023-04-01T01:36:44;10.93;;;7.90;;
54929;SDS011;40833;53.238;6.576;2023-04-01T01:39:13;10.57;;;8.13;;
54929;SDS011;40833;53.238;6.576;2023-04-01T01:41:39;9.97;;;8.30;;
54929;SDS011;40833;53.238;6.576;2023-04-01T01:44:08;8.80;;;8.00;;
54929;SDS011;40833;53.238;6.576;2023-04-01T01:46:38;11.33;;;9.33;;
54929;SDS011;40833;53.238;6.576;2023-04-01T01:49:06;11.03;;;8.23;;
54929;SDS011;40833;53.238;6.576;2023-04-01T01:51:35;8.87;;;8.00;;
54929;SDS011;40833;53.238;6.576;2023-04-01T01:54:01;11.47;;;7.90;;
54929;SDS011;40833;53.238;6.576;2023-04-01T01:56:27;14.57;;;8.97;;
54929;SDS011;40833;53.238;6.576;2023-04-01T01:58:57;10.83;;;8.20;;
54929;SDS011;40833;53.238;6.576;2023-04-01T02:01:27;10.67;;;8.73;;
54929;SDS011;40833;53.238;6.576;2023-04-01T02:03:55;11.37;;;9.30;;
54929;SDS011;40833;53.238;6.576;2023-04-01T02:06:23;13.73;;;9.13;;
54929;SDS011;40833;53.238;6.576;2023-04-01T02:08:56;13.10;;;9.77;;
54929;SDS011;40833;53.238;6.576;2023-04-01T02:11:49;14.00;;;9.70;;
54929;SDS011;40833;53.238;6.576;2023-04-01T02:14:14;12.77;;;9.07;;
54929;SDS011;40833;53.238;6.576;2023-04-01T02:16:57;12.67;;;9.90;;
54929;SDS011;40833;53.238;6.576;2023-04-01T02:19:39;13.75;;;10.20;;
54929;SDS011;40833;53.238;6.576;2023-04-01T02:22:14;17.03;;;10.57;;
54929;SDS011;40833;53.238;6.576;2023-04-01T02:24:43;10.83;;;8.77;;
54929;SDS011;40833;53.238;6.576;2023-04-01T02:27:11;12.60;;;10.47;;
54929;SDS011;40833;53.238;6.576;2023-04-01T02:29:37;12.03;;;9.80;;
54929;SDS011;40833;53.238;6.576;2023-04-01T02:32:03;14.20;;;10.60;;
54929;SDS011;40833;53.238;6.576;2023-04-01T02:34:31;15.67;;;10.77;;
54929;SDS011;40833;53.238;6.576;2023-04-01T02:36:57;15.73;;;10.70;;
54929;SDS011;40833;53.238;6.576;2023-04-01T02:39:23;18.30;;;10.67;;
54929;SDS011;40833;53.238;6.576;2023-04-01T02:41:50;13.90;;;10.57;;
54929;SDS011;40833;53.238;6.576;2023-04-01T02:44:16;16.17;;;10.97;;
54929;SDS011;40833;53.238;6.576;2023-04-01T02:46:41;15.47;;;10.70;;
54929;SDS011;40833;53.238;6.576;2023-04-01T02:49:07;16.30;;;10.80;;
54929;SDS011;40833;53.238;6.576;2023-04-01T02:51:33;16.63;;;11.23;;
54929;SDS011;40833;53.238;6.576;2023-04-01T02:53:59;19.27;;;12.70;;
54929;SDS011;40833;53.238;6.576;2023-04-01T02:56:25;20.37;;;11.80;;
54929;SDS011;40833;53.238;6.576;2023-04-01T02:58:52;19.57;;;11.73;;
54929;SDS011;40833;53.238;6.576;2023-04-01T03:01:18;19.67;;;13.17;;
54929;SDS011;40833;53.238;6.576;2023-04-01T03:03:44;22.70;;;13.43;;
54929;SDS011;40833;53.238;6.576;2023-04-01T03:06:11;19.97;;;13.33;;
54929;SDS011;40833;53.238;6.576;2023-04-01T03:08:38;21.27;;;13.30;;
54929;SDS011;40833;53.238;6.576;2023-04-01T03:11:04;27.90;;;14.70;;
54929;SDS011;40833;53.238;6.576;2023-04-01T03:13:31;22.00;;;14.87;;
54929;SDS011;40833;53.238;6.576;2023-04-01T03:15:57;32.00;;;15.83;;
54929;SDS011;40833;53.238;6.576;2023-04-01T03:18:23;24.03;;;14.53;;
54929;SDS011;40833;53.238;6.576;2023-04-01T03:20:49;30.60;;;16.70;;
54929;SDS011;40833;53.238;6.576;2023-04-01T03:23:15;64.80;;;18.73;;
54929;SDS011;40833;53.238;6.576;2023-04-01T03:25:42;28.67;;;16.37;;
54929;SDS011;40833;53.238;6.576;2023-04-01T03:28:08;30.17;;;16.80;;
54929;SDS011;40833;53.238;6.576;2023-04-01T03:30:35;31.40;;;16.33;;
54929;SDS011;40833;53.238;6.576;2023-04-01T03:33:01;30.03;;;16.70;;
54929;SDS011;40833;53.238;6.576;2023-04-01T03:35:27;28.30;;;15.57;;
54929;SDS011;40833;53.238;6.576;2023-04-01T03:37:54;32.70;;;17.10;;
54929;SDS011;40833;53.238;6.576;2023-04-01T03:40:20;27.80;;;17.03;;
54929;SDS011;40833;53.238;6.576;2023-04-01T03:42:46;28.53;;;16.67;;
54929;SDS011;40833;53.238;6.576;2023-04-01T03:45:12;29.30;;;16.50;;
54929;SDS011;40833;53.238;6.576;2023-04-01T03:47:38;27.77;;;16.57;;
54929;SDS011;40833;53.238;6.576;2023-04-01T03:50:05;28.40;;;16.70;;
54929;SDS011;40833;53.238;6.576;2023-04-01T03:52:31;28.00;;;16.10;;
54929;SDS011;40833;53.238;6.576;2023-04-01T03:54:58;30.47;;;16.27;;
54929;SDS011;40833;53.238;6.576;2023-04-01T03:57:24;31.93;;;17.57;;
54929;SDS011;40833;53.238;6.576;2023-04-01T03:59:50;31.80;;;16.83;;
54929;SDS011;40833;53.238;6.576;2023-04-01T04:02:16;38.43;;;17.23;;
54929;SDS011;40833;53.238;6.576;2023-04-01T04:04:42;24.80;;;15.07;;
54929;SDS011;40833;53.238;6.576;2023-04-01T04:07:08;23.53;;;15.50;;
54929;SDS011;40833;53.238;6.576;2023-04-01T04:09:34;30.47;;;16.93;;
54929;SDS011;40833;53.238;6.576;2023-04-01T04:12:00;29.13;;;16.00;;
54929;SDS011;40833;53.238;6.576;2023-04-01T04:14:26;31.33;;;16.93;;
54929;SDS011;40833;53.238;6.576;2023-04-01T04:16:52;31.57;;;17.37;;
54929;SDS011;40833;53.238;6.576;2023-04-01T04:19:17;25.07;;;16.10;;
54929;SDS011;40833;53.238;6.576;2023-04-01T04:21:43;28.87;;;16.73;;
54929;SDS011;40833;53.238;6.576;2023-04-01T04:24:09;33.23;;;18.53;;
54929;SDS011;40833;53.238;6.576;2023-04-01T04:26:35;27.90;;;17.47;;
54929;SDS011;40833;53.238;6.576;2023-04-01T04:29:01;28.87;;;16.77;;
54929;SDS011;40833;53.238;6.576;2023-04-01T04:31:27;23.13;;;16.20;;
54929;SDS011;40833;53.238;6.576;2023-04-01T04:33:53;28.77;;;16.67;;
54929;SDS011;40833;53.238;6.576;2023-04-01T04:36:19;29.47;;;16.10;;
54929;SDS011;40833;53.238;6.576;2023-04-01T04:38:45;31.10;;;17.30;;
54929;SDS011;40833;53.238;6.576;2023-04-01T04:41:12;28.10;;;16.60;;
54929;SDS011;40833;53.238;6.576;2023-04-01T04:43:39;29.37;;;17.00;;
54929;SDS011;40833;53.238;6.576;2023-04-01T04:46:09;27.07;;;17.77;;
54929;SDS011;40833;53.238;6.576;2023-04-01T04:48:35;27.20;;;17.10;;
54929;SDS011;40833;53.238;6.576;2023-04-01T04:51:02;25.87;;;16.97;;
54929;SDS011;40833;53.238;6.576;2023-04-01T04:53:28;25.33;;;17.27;;
54929;SDS011;40833;53.238;6.576;2023-04-01T04:55:54;26.43;;;17.60;;
54929;SDS011;40833;53.238;6.576;2023-04-01T04:58:20;30.33;;;17.20;;
54929;SDS011;40833;53.238;6.576;2023-04-01T05:00:46;28.67;;;18.17;;
54929;SDS011;40833;53.238;6.576;2023-04-01T05:03:12;29.83;;;17.93;;
54929;SDS011;40833;53.238;6.576;2023-04-01T05:05:38;25.57;;;17.00;;
54929;SDS011;40833;53.238;6.576;2023-04-01T05:08:04;32.17;;;18.73;;
54929;SDS011;40833;53.238;6.576;2023-04-01T05:10:30;35.93;;;19.50;;
54929;SDS011;40833;53.238;6.576;2023-04-01T05:12:57;28.37;;;18.47;;
54929;SDS011;40833;53.238;6.576;2023-04-01T05:15:23;32.87;;;20.63;;
54929;SDS011;40833;53.238;6.576;2023-04-01T05:17:48;33.03;;;20.07;;
54929;SDS011;40833;53.238;6.576;2023-04-01T05:20:15;37.60;;;20.73;;
54929;SDS011;40833;53.238;6.576;2023-04-01T05:22:41;36.40;;;20.53;;
54929;SDS011;40833;53.238;6.576;2023-04-01T05:25:07;42.37;;;22.07;;
54929;SDS011;40833;53.238;6.576;2023-04-01T05:27:33;34.07;;;20.50;;
54929;SDS011;40833;53.238;6.576;2023-04-01T05:29:59;33.73;;;20.47;;
54929;SDS011;40833;53.238;6.576;2023-04-01T05:32:24;34.97;;;19.43;;
54929;SDS011;40833;53.238;6.576;2023-04-01T05:34:51;31.00;;;18.80;;
54929;SDS011;40833;53.238;6.576;2023-04-01T05:37:17;31.40;;;20.17;;
54929;SDS011;40833;53.238;6.576;2023-04-01T05:39:43;37.17;;;19.83;;
54929;SDS011;40833;53.238;6.576;2023-04-01T05:42:09;31.27;;;19.03;;
54929;SDS011;40833;53.238;6.576;2023-04-01T05:44:35;33.17;;;17.93;;
54929;SDS011;40833;53.238;6.576;2023-04-01T05:47:02;29.83;;;17.83;;
54929;SDS011;40833;53.238;6.576;2023-04-01T05:49:29;32.33;;;18.20;;
54929;SDS011;40833;53.238;6.576;2023-04-01T05:51:55;27.93;;;16.67;;
54929;SDS011;40833;53.238;6.576;2023-04-01T05:54:21;28.07;;;16.33;;
54929;SDS011;40833;53.238;6.576;2023-04-01T05:56:47;29.37;;;17.17;;
54929;SDS011;40833;53.238;6.576;2023-04-01T05:59:13;33.27;;;17.17;;
54929;SDS011;40833;53.238;6.576;2023-04-01T06:01:39;33.07;;;17.47;;
54929;SDS011;40833;53.238;6.576;2023-04-01T06:04:05;29.43;;;17.13;;
54929;SDS011;40833;53.238;6.576;2023-04-01T06:06:31;32.67;;;16.60;;
54929;SDS011;40833;53.238;6.576;2023-04-01T06:08:58;37.20;;;17.40;;
54929;SDS011;40833;53.238;6.576;2023-04-01T06:14:36;32.50;;;16.70;;
54929;SDS011;40833;53.238;6.576;2023-04-01T06:20:15;26.50;;;17.17;;
54929;SDS011;40833;53.238;6.576;2023-04-01T06:34:29;31.60;;;20.07;;
54929;SDS011;40833;53.238;6.576;2023-04-01T06:40:12;30.93;;;20.33;;
54929;SDS011;40833;53.238;6.576;2023-04-01T06:56:14;36.03;;;21.80;;
54929;SDS011;40833;53.238;6.576;2023-04-01T06:58:48;38.10;;;23.37;;
54929;SDS011;40833;53.238;6.576;2023-04-01T07:01:26;33.13;;;22.50;;
54929;SDS011;40833;53.238;6.576;2023-04-01T07:04:18;34.30;;;22.23;;
54929;SDS011;40833;53.238;6.576;2023-04-01T07:06:52;36.43;;;23.17;;
54929;SDS011;40833;53.238;6.576;2023-04-01T07:09:24;34.23;;;22.67;;
54929;SDS011;40833;53.238;6.576;2023-04-01T07:11:59;34.27;;;21.40;;
54929;SDS011;40833;53.238;6.576;2023-04-01T07:14:30;37.67;;;23.73;;
54929;SDS011;40833;53.238;6.576;2023-04-01T07:17:00;36.37;;;23.33;;
54929;SDS011;40833;53.238;6.576;2023-04-01T07:22:26;32.93;;;22.10;;
54929;SDS011;40833;53.238;6.576;2023-04-01T07:25:20;34.13;;;22.83;;
54929;SDS011;40833;53.238;6.576;2023-04-01T07:28:11;32.20;;;22.33;;
54929;SDS011;40833;53.238;6.576;2023-04-01T07:31:03;34.77;;;23.07;;
54929;SDS011;40833;53.238;6.576;2023-04-01T07:36:13;29.77;;;21.30;;
54929;SDS011;40833;53.238;6.576;2023-04-01T07:39:17;27.17;;;19.73;;
54929;SDS011;40833;53.238;6.576;2023-04-01T07:50:18;24.93;;;20.47;;
54929;SDS011;40833;53.238;6.576;2023-04-01T07:58:02;21.05;;;17.33;;
54929;SDS011;40833;53.238;6.576;2023-04-01T08:00:49;21.07;;;16.50;;
54929;SDS011;40833;53.238;6.576;2023-04-01T08:03:38;17.90;;;15.57;;
54929;SDS011;40833;53.238;6.576;2023-04-01T08:06:31;16.90;;;15.10;;
54929;SDS011;40833;53.238;6.576;2023-04-01T08:09:08;17.50;;;15.57;;
54929;SDS011;40833;53.238;6.576;2023-04-01T08:17:28;16.77;;;13.67;;
54929;SDS011;40833;53.238;6.576;2023-04-01T08:20:18;14.90;;;13.40;;
54929;SDS011;40833;53.238;6.576;2023-04-01T08:22:59;17.13;;;13.60;;
54929;SDS011;40833;53.238;6.576;2023-04-01T08:25:33;17.10;;;15.00;;
54929;SDS011;40833;53.238;6.576;2023-04-01T08:31:22;18.47;;;16.33;;
54929;SDS011;40833;53.238;6.576;2023-04-01T08:33:56;17.27;;;15.53;;
54929;SDS011;40833;53.238;6.576;2023-04-01T08:36:29;18.80;;;15.27;;
54929;SDS011;40833;53.238;6.576;2023-04-01T08:39:09;15.80;;;14.03;;
54929;SDS011;40833;53.238;6.576;2023-04-01T08:56:10;8.17;;;5.17;;
54929;SDS011;40833;53.238;6.576;2023-04-01T08:58:54;8.20;;;5.00;;
54929;SDS011;40833;53.238;6.576;2023-04-01T09:23:10;4.33;;;2.60;;
54929;SDS011;40833;53.238;6.576;2023-04-01T09:26:18;3.07;;;2.87;;
54929;SDS011;40833;53.238;6.576;2023-04-01T09:28:59;2.20;;;2.10;;
54929;SDS011;40833;53.238;6.576;2023-04-01T09:34:46;1.50;;;1.40;;
54929;SDS011;40833;53.238;6.576;2023-04-01T09:44:57;2.27;;;2.03;;
54929;SDS011;40833;53.238;6.576;2023-04-01T09:47:35;3.83;;;2.00;;
54929;SDS011;40833;53.238;6.576;2023-04-01T09:53:14;1.50;;;1.33;;
54929;SDS011;40833;53.238;6.576;2023-04-01T10:04:05;4.90;;;1.80;;
54929;SDS011;40833;53.238;6.576;2023-04-01T10:09:41;2.80;;;1.43;;
54929;SDS011;40833;53.238;6.576;2023-04-01T10:32:44;4.10;;;1.00;;
54929;SDS011;40833;53.238;6.576;2023-04-01T10:54:30;3.23;;;1.20;;
54929;SDS011;40833;53.238;6.576;2023-04-01T11:00:08;2.63;;;1.17;;
54929;SDS011;40833;53.238;6.576;2023-04-01T11:05:51;3.07;;;1.63;;
54929;SDS011;40833;53.238;6.576;2023-04-01T11:08:51;2.93;;;1.27;;
54929;SDS011;40833;53.238;6.576;2023-04-01T11:26:27;1.83;;;1.23;;
54929;SDS011;40833;53.238;6.576;2023-04-01T11:40:33;1.50;;;0.70;;
54929;SDS011;40833;53.238;6.576;2023-04-01T11:45:52;2.00;;;0.80;;
54929;SDS011;40833;53.238;6.576;2023-04-01T11:51:38;0.93;;;0.83;;
54929;SDS011;40833;53.238;6.576;2023-04-01T11:55:02;1.30;;;0.97;;
54929;SDS011;40833;53.238;6.576;2023-04-01T11:57:39;1.10;;;0.70;;
54929;SDS011;40833;53.238;6.576;2023-04-01T12:12:32;3.60;;;0.80;;
54929;SDS011;40833;53.238;6.576;2023-04-01T12:20:36;2.07;;;0.53;;
54929;SDS011;40833;53.238;6.576;2023-04-01T12:23:15;0.73;;;0.47;;
54929;SDS011;40833;53.238;6.576;2023-04-01T12:28:41;0.83;;;0.80;;
54929;SDS011;40833;53.238;6.576;2023-04-01T12:42:54;0.90;;;0.60;;
54929;SDS011;40833;53.238;6.576;2023-04-01T12:45:31;0.60;;;0.60;;
54929;SDS011;40833;53.238;6.576;2023-04-01T12:48:02;0.50;;;0.50;;
54929;SDS011;40833;53.238;6.576;2023-04-01T12:53:35;1.10;;;0.60;;
54929;SDS011;40833;53.238;6.576;2023-04-01T12:59:53;1.43;;;0.40;;
54929;SDS011;40833;53.238;6.576;2023-04-01T13:02:12;0.63;;;0.60;;
54929;SDS011;40833;53.238;6.576;2023-04-01T13:04:50;0.50;;;0.50;;
54929;SDS011;40833;53.238;6.576;2023-04-01T13:10:27;1.23;;;0.60;;
54929;SDS011;40833;53.238;6.576;2023-04-01T13:13:08;0.50;;;0.50;;
54929;SDS011;40833;53.238;6.576;2023-04-01T13:18:36;0.63;;;0.40;;
54929;SDS011;40833;53.238;6.576;2023-04-01T13:21:23;1.10;;;0.73;;
54929;SDS011;40833;53.238;6.576;2023-04-01T13:27:24;1.17;;;0.50;;
54929;SDS011;40833;53.238;6.576;2023-04-01T13:29:34;1.43;;;0.30;;
54929;SDS011;40833;53.238;6.576;2023-04-01T13:35:03;1.23;;;0.50;;
54929;SDS011;40833;53.238;6.576;2023-04-01T13:37:53;3.27;;;0.50;;
54929;SDS011;40833;53.238;6.576;2023-04-01T13:41:21;0.90;;;0.40;;
54929;SDS011;40833;53.238;6.576;2023-04-01T13:46:03;1.75;;;0.50;;
54929;SDS011;40833;53.238;6.576;2023-04-01T14:08:09;2.13;;;1.50;;
54929;SDS011;40833;53.238;6.576;2023-04-01T14:22:40;1.00;;;0.47;;
54929;SDS011;40833;53.238;6.576;2023-04-01T14:36:37;2.70;;;1.67;;
54929;SDS011;40833;53.238;6.576;2023-04-01T14:39:36;2.97;;;2.77;;
54929;SDS011;40833;53.238;6.576;2023-04-01T14:45:40;3.57;;;1.70;;
54929;SDS011;40833;53.238;6.576;2023-04-01T14:48:52;2.10;;;1.53;;
54929;SDS011;40833;53.238;6.576;2023-04-01T14:50:53;2.17;;;1.97;;
54929;SDS011;40833;53.238;6.576;2023-04-01T14:56:02;10.10;;;8.53;;
54929;SDS011;40833;53.238;6.576;2023-04-01T14:58:40;1.93;;;1.60;;
54929;SDS011;40833;53.238;6.576;2023-04-01T15:09:52;12.93;;;9.55;;
54929;SDS011;40833;53.238;6.576;2023-04-01T15:12:57;5.60;;;4.17;;
54929;SDS011;40833;53.238;6.576;2023-04-01T15:18:39;2.92;;;2.35;;
54929;SDS011;40833;53.238;6.576;2023-04-01T15:21:37;4.13;;;3.43;;
54929;SDS011;40833;53.238;6.576;2023-04-01T15:27:44;8.60;;;6.07;;
54929;SDS011;40833;53.238;6.576;2023-04-01T15:36:20;6.57;;;4.97;;
54929;SDS011;40833;53.238;6.576;2023-04-01T15:41:45;7.17;;;4.37;;
54929;SDS011;40833;53.238;6.576;2023-04-01T15:49:54;15.40;;;9.98;;
54929;SDS011;40833;53.238;6.576;2023-04-01T15:52:38;29.60;;;15.83;;
54929;SDS011;40833;53.238;6.576;2023-04-01T16:24:09;6.27;;;4.73;;
54929;SDS011;40833;53.238;6.576;2023-04-01T16:29:07;15.70;;;5.27;;
54929;SDS011;40833;53.238;6.576;2023-04-01T16:31:37;5.10;;;4.20;;
54929;SDS011;40833;53.238;6.576;2023-04-01T16:34:24;16.23;;;8.80;;
54929;SDS011;40833;53.238;6.576;2023-04-01T16:36:54;18.60;;;13.00;;
54929;SDS011;40833;53.238;6.576;2023-04-01T16:39:27;33.00;;;19.17;;
54929;SDS011;40833;53.238;6.576;2023-04-01T16:42:27;86.77;;;36.73;;
54929;SDS011;40833;53.238;6.576;2023-04-01T16:45:02;91.60;;;41.53;;
54929;SDS011;40833;53.238;6.576;2023-04-01T16:47:53;19.30;;;9.70;;
54929;SDS011;40833;53.238;6.576;2023-04-01T16:53:19;36.37;;;22.27;;
54929;SDS011;40833;53.238;6.576;2023-04-01T16:56:20;61.17;;;34.70;;
54929;SDS011;40833;53.238;6.576;2023-04-01T17:01:28;36.80;;;19.07;;
54929;SDS011;40833;53.238;6.576;2023-04-01T17:04:59;11.75;;;7.18;;
54929;SDS011;40833;53.238;6.576;2023-04-01T17:27:08;47.47;;;24.60;;
54929;SDS011;40833;53.238;6.576;2023-04-01T17:45:50;12.67;;;6.13;;
54929;SDS011;40833;53.238;6.576;2023-04-01T17:48:26;9.07;;;5.77;;
54929;SDS011;40833;53.238;6.576;2023-04-01T18:08:20;12.87;;;6.57;;
54929;SDS011;40833;53.238;6.576;2023-04-01T18:16:29;8.13;;;5.00;;
54929;SDS011;40833;53.238;6.576;2023-04-01T18:24:40;18.00;;;6.37;;
54929;SDS011;40833;53.238;6.576;2023-04-01T18:27:29;9.30;;;5.17;;
54929;SDS011;40833;53.238;6.576;2023-04-01T18:30:07;12.67;;;6.40;;
54929;SDS011;40833;53.238;6.576;2023-04-01T18:40:35;11.87;;;5.70;;
54929;SDS011;40833;53.238;6.576;2023-04-01T18:43:09;12.07;;;6.03;;
54929;SDS011;40833;53.238;6.576;2023-04-01T18:46:07;14.13;;;5.80;;
54929;SDS011;40833;53.238;6.576;2023-04-01T18:54:12;14.03;;;6.10;;
54929;SDS011;40833;53.238;6.576;2023-04-01T18:56:39;21.70;;;9.27;;
54929;SDS011;40833;53.238;6.576;2023-04-01T19:10:12;11.57;;;7.20;;
54929;SDS011;40833;53.238;6.576;2023-04-01T19:15:44;10.20;;;6.50;;
54929;SDS011;40833;53.238;6.576;2023-04-01T19:21:35;12.50;;;6.07;;
54929;SDS011;40833;53.238;6.576;2023-04-01T19:32:49;10.97;;;5.50;;
54929;SDS011;40833;53.238;6.576;2023-04-01T19:35:42;8.63;;;5.10;;
54929;SDS011;40833;53.238;6.576;2023-04-01T19:46:44;14.70;;;5.20;;
54929;SDS011;40833;53.238;6.576;2023-04-01T19:52:00;8.93;;;4.90;;
54929;SDS011;40833;53.238;6.576;2023-04-01T19:54:38;11.03;;;5.07;;
54929;SDS011;40833;53.238;6.576;2023-04-01T19:59:59;12.37;;;5.20;;
54929;SDS011;40833;53.238;6.576;2023-04-01T20:05:55;8.43;;;4.83;;
54929;SDS011;40833;53.238;6.576;2023-04-01T20:08:15;12.27;;;5.03;;
54929;SDS011;40833;53.238;6.576;2023-04-01T20:16:17;10.43;;;4.90;;
54929;SDS011;40833;53.238;6.576;2023-04-01T20:21:27;7.37;;;4.07;;
54929;SDS011;40833;53.238;6.576;2023-04-01T20:26:39;10.73;;;4.70;;
54929;SDS011;40833;53.238;6.576;2023-04-01T20:31:59;8.47;;;3.73;;
54929;SDS011;40833;53.238;6.576;2023-04-01T20:37:52;12.17;;;4.10;;
54929;SDS011;40833;53.238;6.576;2023-04-01T20:48:48;10.20;;;5.20;;
54929;SDS011;40833;53.238;6.576;2023-04-01T21:07:41;9.40;;;4.03;;
54929;SDS011;40833;53.238;6.576;2023-04-01T21:10:29;12.03;;;5.23;;
54929;SDS011;40833;53.238;6.576;2023-04-01T21:13:04;11.10;;;3.80;;
54929;SDS011;40833;53.238;6.576;2023-04-01T21:27:44;12.30;;;3.97;;
54929;SDS011;40833;53.238;6.576;2023-04-01T21:32:46;9.47;;;3.43;;
54929;SDS011;40833;53.238;6.576;2023-04-01T21:37:53;7.07;;;3.87;;
54929;SDS011;40833;53.238;6.576;2023-04-01T22:01:28;15.83;;;5.30;;
54929;SDS011;40833;53.238;6.576;2023-04-01T22:06:51;11.90;;;4.57;;
54929;SDS011;40833;53.238;6.576;2023-04-01T22:09:35;8.93;;;4.37;;
54929;SDS011;40833;53.238;6.576;2023-04-01T22:12:32;11.00;;;5.40;;
54929;SDS011;40833;53.238;6.576;2023-04-01T22:17:53;11.50;;;4.13;;
54929;SDS011;40833;53.238;6.576;2023-04-01T22:20:40;13.67;;;7.50;;
54929;SDS011;40833;53.238;6.576;2023-04-01T22:32:07;12.13;;;2.83;;
54929;SDS011;40833;53.238;6.576;2023-04-01T22:51:07;8.10;;;2.40;;
54929;SDS011;40833;53.238;6.576;2023-04-01T22:56:38;5.57;;;2.20;;
54929;SDS011;40833;53.238;6.576;2023-04-01T23:01:40;7.47;;;2.43;;
54929;SDS011;40833;53.238;6.576;2023-04-01T23:04:15;8.53;;;2.80;;
54929;SDS011;40833;53.238;6.576;2023-04-01T23:06:47;6.68;;;2.00;;
54929;SDS011;40833;53.238;6.576;2023-04-01T23:11:54;15.00;;;2.67;;
54929;SDS011;40833;53.238;6.576;2023-04-01T23:14:44;9.03;;;2.23;;
54929;SDS011;40833;53.238;6.576;2023-04-01T23:19:46;7.97;;;2.88;;
54929;SDS011;40833;53.238;6.576;2023-04-01T23:30:49;5.90;;;2.37;;
54929;SDS011;40833;53.238;6.576;2023-04-01T23:35:52;7.17;;;2.37;;
54929;SDS011;40833;53.238;6.576;2023-04-01T23:38:34;5.37;;;2.70;;
54929;SDS011;40833;53.238;6.576;2023-04-01T23:41:02;5.47;;;2.80;;
54929;SDS011;40833;53.238;6.576;2023-04-01T23:43:30;8.77;;;2.23;;
54929;SDS011;40833;53.238;6.576;2023-04-01T23:46:00;6.13;;;2.30;;
54929;SDS011;40833;53.238;6.576;2023-04-01T23:48:30;9.93;;;2.37;;
54929;SDS011;40833;53.238;6.576;2023-04-01T23:51:03;4.03;;;2.27;;
54929;SDS011;40833;53.238;6.576;2023-04-01T23:53:30;8.33;;;2.53;;
54929;SDS011;40833;53.238;6.576;2023-04-01T23:55:59;4.77;;;1.90;;
